• Join FlightAware (Why Join?)
  • Login
  • US Flag 
12:15PM EST


 

Airport Tracker/Info


-or-


 

Live Flight TrackerFlight Track Log ✈ N85FD ✈ 14-Jun-2014 ✈ C29 - KAUW

Flight Track Log - Related Links

Times and Time Zones

All times are in EDT time to prevent confusion due to time zone crossing. See the N85FD flight status page for this flight to view local times or setup timezone preferences in your user account.

Time Position Orientation Groundspeed Altitude Reporting Facility
EDT Latitude Longitude Course Direction KTS MPH feet Rate Location/Type
08:07PM 43.3500 -89.4489 North 188 216 2,900  Level Chicago Center
08:08PM 43.4000 -89.4556 354° North 186 214 4,200 1,317 Climbing Chicago Center
08:09PM 43.4508 -89.4600 356° North 185 213 5,600 1,220 Climbing Chicago Center
08:10PM 43.5039 -89.4658 355° North 186 214 6,700 134 Climbing Chicago Center
08:12PM 43.4464 -89.5333 North  Level FlightAware Approximate
08:12PM 43.6450 -89.4825 355° North 247 284 6,000  Level Minneapolis Center
08:13PM 43.5003 -89.5500 North  Level FlightAware Approximate
08:13PM 43.7158 -89.4903 355° North 249 287 6,000  Level Minneapolis Center
08:14PM 43.7800 -89.4969 356° North 246 283 6,000  Level Minneapolis Center
08:15PM 43.8497 -89.5053 355° North 243 280 6,000  Level Minneapolis Center
08:16PM 43.9181 -89.5128 355° North 239 275 6,000  Level Minneapolis Center
08:17PM 43.9842 -89.5211 355° North 241 277 6,000  Level Minneapolis Center
08:19PM 44.0564 -89.5153 North 248 285 6,000  Level Minneapolis Center
08:20PM 44.1300 -89.5058 North 252 290 6,000  Level Minneapolis Center
08:21PM 44.1969 -89.4972 North 252 290 6,000  Level Minneapolis Center
08:22PM 44.2692 -89.4853 North 252 290 6,000  Level Minneapolis Center
08:23PM 44.3411 -89.4747 North 252 290 6,000  Level Minneapolis Center
08:24PM 44.4083 -89.4658 North 251 289 6,000 -98 Level Minneapolis Center
08:25PM 44.4806 -89.4561 North 251 289 5,800 -344 Descending Minneapolis Center
08:26PM 44.5564 -89.4453 North 257 296 5,300 -393 Descending Minneapolis Center
08:27PM 44.6342 -89.4353 North 263 303 5,000 -146 Descending Minneapolis Center
08:28PM 44.7022 -89.4264 North 261 300 5,000 -244 Level Minneapolis Center
08:29PM 44.7775 -89.4328 357° North 257 296 4,500 -590 Descending Minneapolis Center
08:30PM 44.8528 -89.4550 348° North 262 302 3,800 -443 Descending Minneapolis Center
08:31PM 44.9011 -89.5106 321° Northwest 239 275 3,600 -197 Descending Minneapolis Center